Decoded Metar for KLFI (HAMPTON in VA, USA) (IATA:LFI) | Meteo·Mobile Aviation Weather
aviador You're here:

KLFI Decoded Metar

HAMPTON in VA, USA
Report Time2018-10-18 15:56:00
UTC Time2018-10-18 16:34:33
Flight Rules vfr VFR
Wind040° at 10 kt
W.Decomp.*RWY 08: 8.7 kt HW 5 kt LCW
W.Rank040° ranks 9
Current wind is above 040° avg. (9.2)
Visibility9999 m
Phenomena:N/A
Clouds:Few 170 Hf
Expected CloudBase > 4,800 ft AGL from Temp-Dew spread
CeilingNone
Temp14°C (ISA -1)
Dew Point02°C (44% RH)
AAT8.7°C
QNH1030 hPa
Density Alt-581 ft
Elevation10 ft
Report Wrong Elevation
Raw Report
KLFI 181556Z 04010KT 10SM FEW170 14/02 A3043 RMK AO2A SLP311
T01420024=

Extra information for KLFI:More info

Metar Taf Metar & Taf Last 4 Metars F.Rules Stats Wind Profile Meteogram Temp Stats Airport Information Weather charts Add Link Nearby VenuesMetar ALERT Operation Metar Decoded Social comments

AIRNAV info for KLFI